sensor_id;sensor_type;location;lat;lon;timestamp;P1;P2;P0
49708;PMS5003;35601;55.902;13.606;2023-04-15T00:00:31;41;38;
49708;PMS5003;35601;55.902;13.606;2023-04-15T00:02:57;52;46;
49708;PMS5003;35601;55.902;13.606;2023-04-15T00:05:22;38;36;
49708;PMS5003;35601;55.902;13.606;2023-04-15T00:07:49;47;41;
49708;PMS5003;35601;55.902;13.606;2023-04-15T00:10:14;43;39;
49708;PMS5003;35601;55.902;13.606;2023-04-15T00:12:38;43;41;
49708;PMS5003;35601;55.902;13.606;2023-04-15T00:15:04;44;39;
49708;PMS5003;35601;55.902;13.606;2023-04-15T00:17:31;39;38;
49708;PMS5003;35601;55.902;13.606;2023-04-15T00:19:54;38;35;
49708;PMS5003;35601;55.902;13.606;2023-04-15T00:22:20;37;33;
49708;PMS5003;35601;55.902;13.606;2023-04-15T00:24:46;38;37;
49708;PMS5003;35601;55.902;13.606;2023-04-15T00:27:12;46;43;
49708;PMS5003;35601;55.902;13.606;2023-04-15T00:29:37;41;38;
49708;PMS5003;35601;55.902;13.606;2023-04-15T00:32:02;45;42;
49708;PMS5003;35601;55.902;13.606;2023-04-15T00:34:28;49;42;
49708;PMS5003;35601;55.902;13.606;2023-04-15T00:36:53;52;45;
49708;PMS5003;35601;55.902;13.606;2023-04-15T00:39:18;40;39;
49708;PMS5003;35601;55.902;13.606;2023-04-15T00:41:44;46;43;
49708;PMS5003;35601;55.902;13.606;2023-04-15T00:44:09;40;37;
49708;PMS5003;35601;55.902;13.606;2023-04-15T00:46:35;35;35;
49708;PMS5003;35601;55.902;13.606;2023-04-15T00:49:01;40;34;
49708;PMS5003;35601;55.902;13.606;2023-04-15T00:51:26;45;43;
49708;PMS5003;35601;55.902;13.606;2023-04-15T00:53:51;49;44;
49708;PMS5003;35601;55.902;13.606;2023-04-15T00:56:17;42;40;
49708;PMS5003;35601;55.902;13.606;2023-04-15T00:58:43;45;43;
49708;PMS5003;35601;55.902;13.606;2023-04-15T01:01:08;43;43;
49708;PMS5003;35601;55.902;13.606;2023-04-15T01:03:33;47;43;
49708;PMS5003;35601;55.902;13.606;2023-04-15T01:05:59;45;42;
49708;PMS5003;35601;55.902;13.606;2023-04-15T01:08:25;42;39;
49708;PMS5003;35601;55.902;13.606;2023-04-15T01:10:49;48;45;
49708;PMS5003;35601;55.902;13.606;2023-04-15T01:13:14;44;43;
49708;PMS5003;35601;55.902;13.606;2023-04-15T01:15:40;45;39;
49708;PMS5003;35601;55.902;13.606;2023-04-15T01:18:05;45;42;
49708;PMS5003;35601;55.902;13.606;2023-04-15T01:20:31;47;44;
49708;PMS5003;35601;55.902;13.606;2023-04-15T01:22:56;54;45;
49708;PMS5003;35601;55.902;13.606;2023-04-15T01:25:27;51;47;
49708;PMS5003;35601;55.902;13.606;2023-04-15T01:27:46;48;44;
49708;PMS5003;35601;55.902;13.606;2023-04-15T01:30:12;54;49;
49708;PMS5003;35601;55.902;13.606;2023-04-15T01:32:37;54;48;
49708;PMS5003;35601;55.902;13.606;2023-04-15T01:35:04;45;42;
49708;PMS5003;35601;55.902;13.606;2023-04-15T01:37:28;45;41;
49708;PMS5003;35601;55.902;13.606;2023-04-15T01:39:54;48;44;
49708;PMS5003;35601;55.902;13.606;2023-04-15T01:42:20;49;44;
49708;PMS5003;35601;55.902;13.606;2023-04-15T01:44:45;44;44;
49708;PMS5003;35601;55.902;13.606;2023-04-15T01:47:10;59;53;
49708;PMS5003;35601;55.902;13.606;2023-04-15T01:49:36;52;49;
49708;PMS5003;35601;55.902;13.606;2023-04-15T01:52:03;60;53;
49708;PMS5003;35601;55.902;13.606;2023-04-15T01:54:27;53;50;
49708;PMS5003;35601;55.902;13.606;2023-04-15T01:56:53;58;52;
49708;PMS5003;35601;55.902;13.606;2023-04-15T01:59:17;54;51;
49708;PMS5003;35601;55.902;13.606;2023-04-15T02:01:43;50;47;
49708;PMS5003;35601;55.902;13.606;2023-04-15T02:04:08;51;49;
49708;PMS5003;35601;55.902;13.606;2023-04-15T02:06:35;51;46;
49708;PMS5003;35601;55.902;13.606;2023-04-15T02:09:00;54;49;
49708;PMS5003;35601;55.902;13.606;2023-04-15T02:11:25;58;48;
49708;PMS5003;35601;55.902;13.606;2023-04-15T02:13:51;53;48;
49708;PMS5003;35601;55.902;13.606;2023-04-15T02:16:16;53;50;
49708;PMS5003;35601;55.902;13.606;2023-04-15T02:18:43;56;48;
49708;PMS5003;35601;55.902;13.606;2023-04-15T02:21:07;60;54;
49708;PMS5003;35601;55.902;13.606;2023-04-15T02:23:33;51;49;
49708;PMS5003;35601;55.902;13.606;2023-04-15T02:26:00;49;48;
49708;PMS5003;35601;55.902;13.606;2023-04-15T02:28:25;54;50;
49708;PMS5003;35601;55.902;13.606;2023-04-15T02:30:50;56;50;
49708;PMS5003;35601;55.902;13.606;2023-04-15T02:33:15;64;55;
49708;PMS5003;35601;55.902;13.606;2023-04-15T02:35:41;61;58;
49708;PMS5003;35601;55.902;13.606;2023-04-15T02:38:06;55;54;
49708;PMS5003;35601;55.902;13.606;2023-04-15T02:40:31;67;61;
49708;PMS5003;35601;55.902;13.606;2023-04-15T02:42:56;56;52;
49708;PMS5003;35601;55.902;13.606;2023-04-15T02:45:23;69;62;
49708;PMS5003;35601;55.902;13.606;2023-04-15T02:47:48;58;55;
49708;PMS5003;35601;55.902;13.606;2023-04-15T02:50:13;57;55;
49708;PMS5003;35601;55.902;13.606;2023-04-15T02:52:38;66;60;
49708;PMS5003;35601;55.902;13.606;2023-04-15T02:55:05;70;65;
49708;PMS5003;35601;55.902;13.606;2023-04-15T02:57:29;73;68;
49708;PMS5003;35601;55.902;13.606;2023-04-15T02:59:55;66;63;
49708;PMS5003;35601;55.902;13.606;2023-04-15T03:02:21;65;59;
49708;PMS5003;35601;55.902;13.606;2023-04-15T03:04:46;72;63;
49708;PMS5003;35601;55.902;13.606;2023-04-15T03:07:11;73;63;
49708;PMS5003;35601;55.902;13.606;2023-04-15T03:09:37;67;62;
49708;PMS5003;35601;55.902;13.606;2023-04-15T03:12:04;70;65;
49708;PMS5003;35601;55.902;13.606;2023-04-15T03:14:29;73;65;
49708;PMS5003;35601;55.902;13.606;2023-04-15T03:16:53;65;59;
49708;PMS5003;35601;55.902;13.606;2023-04-15T03:19:18;70;61;
49708;PMS5003;35601;55.902;13.606;2023-04-15T03:21:44;69;58;
49708;PMS5003;35601;55.902;13.606;2023-04-15T03:24:10;68;64;
49708;PMS5003;35601;55.902;13.606;2023-04-15T03:26:37;62;58;
49708;PMS5003;35601;55.902;13.606;2023-04-15T03:29:01;73;62;
49708;PMS5003;35601;55.902;13.606;2023-04-15T03:31:28;69;63;
49708;PMS5003;35601;55.902;13.606;2023-04-15T03:33:52;69;60;
49708;PMS5003;35601;55.902;13.606;2023-04-15T03:36:17;72;65;
49708;PMS5003;35601;55.902;13.606;2023-04-15T03:38:42;68;63;
49708;PMS5003;35601;55.902;13.606;2023-04-15T03:41:09;73;61;
49708;PMS5003;35601;55.902;13.606;2023-04-15T03:43:33;68;64;
49708;PMS5003;35601;55.902;13.606;2023-04-15T03:45:59;73;67;
49708;PMS5003;35601;55.902;13.606;2023-04-15T03:48:25;68;62;
49708;PMS5003;35601;55.902;13.606;2023-04-15T03:50:49;73;65;
49708;PMS5003;35601;55.902;13.606;2023-04-15T03:53:15;69;63;
49708;PMS5003;35601;55.902;13.606;2023-04-15T03:55:41;71;63;
49708;PMS5003;35601;55.902;13.606;2023-04-15T03:58:06;71;70;
49708;PMS5003;35601;55.902;13.606;2023-04-15T04:00:31;79;70;
49708;PMS5003;35601;55.902;13.606;2023-04-15T04:02:56;70;64;
49708;PMS5003;35601;55.902;13.606;2023-04-15T04:05:21;80;71;
49708;PMS5003;35601;55.902;13.606;2023-04-15T04:07:46;73;67;
49708;PMS5003;35601;55.902;13.606;2023-04-15T04:10:11;72;64;
49708;PMS5003;35601;55.902;13.606;2023-04-15T04:12:37;68;61;
49708;PMS5003;35601;55.902;13.606;2023-04-15T04:15:03;72;62;
49708;PMS5003;35601;55.902;13.606;2023-04-15T04:17:28;76;70;
49708;PMS5003;35601;55.902;13.606;2023-04-15T04:19:54;82;70;
49708;PMS5003;35601;55.902;13.606;2023-04-15T04:22:21;71;67;
49708;PMS5003;35601;55.902;13.606;2023-04-15T04:24:44;73;65;
49708;PMS5003;35601;55.902;13.606;2023-04-15T04:27:10;81;72;
49708;PMS5003;35601;55.902;13.606;2023-04-15T04:29:35;68;64;
49708;PMS5003;35601;55.902;13.606;2023-04-15T04:32:00;70;59;
49708;PMS5003;35601;55.902;13.606;2023-04-15T04:34:25;68;61;
49708;PMS5003;35601;55.902;13.606;2023-04-15T04:36:53;64;61;
49708;PMS5003;35601;55.902;13.606;2023-04-15T04:39:16;76;65;
49708;PMS5003;35601;55.902;13.606;2023-04-15T04:41:41;73;69;
49708;PMS5003;35601;55.902;13.606;2023-04-15T04:44:06;76;66;
49708;PMS5003;35601;55.902;13.606;2023-04-15T04:46:31;78;73;
49708;PMS5003;35601;55.902;13.606;2023-04-15T04:48:57;66;63;
49708;PMS5003;35601;55.902;13.606;2023-04-15T04:51:22;61;56;
49708;PMS5003;35601;55.902;13.606;2023-04-15T04:53:48;76;64;
49708;PMS5003;35601;55.902;13.606;2023-04-15T04:56:14;69;62;
49708;PMS5003;35601;55.902;13.606;2023-04-15T04:58:39;66;66;
49708;PMS5003;35601;55.902;13.606;2023-04-15T05:01:04;73;65;
49708;PMS5003;35601;55.902;13.606;2023-04-15T05:03:30;61;57;
49708;PMS5003;35601;55.902;13.606;2023-04-15T05:05:56;71;65;
49708;PMS5003;35601;55.902;13.606;2023-04-15T05:08:21;66;62;
49708;PMS5003;35601;55.902;13.606;2023-04-15T05:10:47;76;66;
49708;PMS5003;35601;55.902;13.606;2023-04-15T05:13:12;76;71;
49708;PMS5003;35601;55.902;13.606;2023-04-15T05:15:38;68;59;
49708;PMS5003;35601;55.902;13.606;2023-04-15T05:18:03;73;67;
49708;PMS5003;35601;55.902;13.606;2023-04-15T05:20:29;61;58;
49708;PMS5003;35601;55.902;13.606;2023-04-15T05:22:54;66;63;
49708;PMS5003;35601;55.902;13.606;2023-04-15T05:25:19;77;71;
49708;PMS5003;35601;55.902;13.606;2023-04-15T05:27:45;71;64;
49708;PMS5003;35601;55.902;13.606;2023-04-15T05:30:10;75;66;
49708;PMS5003;35601;55.902;13.606;2023-04-15T05:32:36;71;64;
49708;PMS5003;35601;55.902;13.606;2023-04-15T05:35:02;64;59;
49708;PMS5003;35601;55.902;13.606;2023-04-15T05:37:27;72;67;
49708;PMS5003;35601;55.902;13.606;2023-04-15T05:39:53;74;66;
49708;PMS5003;35601;55.902;13.606;2023-04-15T05:42:19;64;63;
49708;PMS5003;35601;55.902;13.606;2023-04-15T05:44:44;67;61;
49708;PMS5003;35601;55.902;13.606;2023-04-15T05:47:09;73;61;
49708;PMS5003;35601;55.902;13.606;2023-04-15T05:49:34;77;63;
49708;PMS5003;35601;55.902;13.606;2023-04-15T05:52:00;69;63;
49708;PMS5003;35601;55.902;13.606;2023-04-15T05:54:25;65;60;
49708;PMS5003;35601;55.902;13.606;2023-04-15T05:56:51;68;61;
49708;PMS5003;35601;55.902;13.606;2023-04-15T05:59:16;63;58;
49708;PMS5003;35601;55.902;13.606;2023-04-15T06:01:42;62;57;
49708;PMS5003;35601;55.902;13.606;2023-04-15T06:04:08;69;60;
49708;PMS5003;35601;55.902;13.606;2023-04-15T06:06:33;62;58;
49708;PMS5003;35601;55.902;13.606;2023-04-15T06:08:59;69;61;
49708;PMS5003;35601;55.902;13.606;2023-04-15T06:11:24;65;61;
49708;PMS5003;35601;55.902;13.606;2023-04-15T06:13:49;62;55;
49708;PMS5003;35601;55.902;13.606;2023-04-15T06:16:15;66;61;
49708;PMS5003;35601;55.902;13.606;2023-04-15T06:18:40;57;55;
49708;PMS5003;35601;55.902;13.606;2023-04-15T06:21:05;65;60;
49708;PMS5003;35601;55.902;13.606;2023-04-15T06:23:32;72;65;
49708;PMS5003;35601;55.902;13.606;2023-04-15T06:25:57;60;58;
49708;PMS5003;35601;55.902;13.606;2023-04-15T06:28:22;60;56;
49708;PMS5003;35601;55.902;13.606;2023-04-15T06:30:47;55;53;
49708;PMS5003;35601;55.902;13.606;2023-04-15T06:33:14;62;56;
49708;PMS5003;35601;55.902;13.606;2023-04-15T06:35:39;68;64;
49708;PMS5003;35601;55.902;13.606;2023-04-15T06:38:04;66;57;
49708;PMS5003;35601;55.902;13.606;2023-04-15T06:40:29;63;58;
49708;PMS5003;35601;55.902;13.606;2023-04-15T06:42:55;66;54;
49708;PMS5003;35601;55.902;13.606;2023-04-15T06:45:20;60;54;
49708;PMS5003;35601;55.902;13.606;2023-04-15T06:47:46;68;56;
49708;PMS5003;35601;55.902;13.606;2023-04-15T06:50:12;60;54;
49708;PMS5003;35601;55.902;13.606;2023-04-15T06:52:36;64;59;
49708;PMS5003;35601;55.902;13.606;2023-04-15T06:55:01;61;56;
49708;PMS5003;35601;55.902;13.606;2023-04-15T06:57:27;53;51;
49708;PMS5003;35601;55.902;13.606;2023-04-15T06:59:53;56;49;
49708;PMS5003;35601;55.902;13.606;2023-04-15T07:02:17;48;46;
49708;PMS5003;35601;55.902;13.606;2023-04-15T07:04:42;66;57;
49708;PMS5003;35601;55.902;13.606;2023-04-15T07:07:07;56;52;
49708;PMS5003;35601;55.902;13.606;2023-04-15T07:09:33;59;56;
49708;PMS5003;35601;55.902;13.606;2023-04-15T07:11:58;55;49;
49708;PMS5003;35601;55.902;13.606;2023-04-15T07:14:24;58;51;
49708;PMS5003;35601;55.902;13.606;2023-04-15T07:16:49;57;51;
49708;PMS5003;35601;55.902;13.606;2023-04-15T07:19:14;51;47;
49708;PMS5003;35601;55.902;13.606;2023-04-15T07:21:41;51;44;
49708;PMS5003;35601;55.902;13.606;2023-04-15T07:24:06;51;46;
49708;PMS5003;35601;55.902;13.606;2023-04-15T07:26:30;50;49;
49708;PMS5003;35601;55.902;13.606;2023-04-15T07:28:55;55;49;
49708;PMS5003;35601;55.902;13.606;2023-04-15T07:31:20;53;45;
49708;PMS5003;35601;55.902;13.606;2023-04-15T07:33:45;49;46;
49708;PMS5003;35601;55.902;13.606;2023-04-15T07:36:11;45;40;
49708;PMS5003;35601;55.902;13.606;2023-04-15T07:38:37;52;47;
49708;PMS5003;35601;55.902;13.606;2023-04-15T07:41:04;50;47;
49708;PMS5003;35601;55.902;13.606;2023-04-15T07:43:28;41;39;
49708;PMS5003;35601;55.902;13.606;2023-04-15T07:45:53;47;42;
49708;PMS5003;35601;55.902;13.606;2023-04-15T07:48:19;44;42;
49708;PMS5003;35601;55.902;13.606;2023-04-15T07:50:44;50;46;
49708;PMS5003;35601;55.902;13.606;2023-04-15T07:53:09;42;41;
49708;PMS5003;35601;55.902;13.606;2023-04-15T07:55:35;45;43;
49708;PMS5003;35601;55.902;13.606;2023-04-15T07:58:00;44;41;
49708;PMS5003;35601;55.902;13.606;2023-04-15T08:00:26;47;43;
49708;PMS5003;35601;55.902;13.606;2023-04-15T08:02:52;43;40;
49708;PMS5003;35601;55.902;13.606;2023-04-15T08:05:17;37;37;
49708;PMS5003;35601;55.902;13.606;2023-04-15T08:07:43;51;47;
49708;PMS5003;35601;55.902;13.606;2023-04-15T08:10:07;38;37;
49708;PMS5003;35601;55.902;13.606;2023-04-15T08:12:33;45;39;
49708;PMS5003;35601;55.902;13.606;2023-04-15T08:15:00;43;38;
49708;PMS5003;35601;55.902;13.606;2023-04-15T08:17:24;44;39;
49708;PMS5003;35601;55.902;13.606;2023-04-15T08:19:50;43;41;
49708;PMS5003;35601;55.902;13.606;2023-04-15T08:22:17;42;38;
49708;PMS5003;35601;55.902;13.606;2023-04-15T08:24:40;45;42;
49708;PMS5003;35601;55.902;13.606;2023-04-15T08:27:06;43;41;
49708;PMS5003;35601;55.902;13.606;2023-04-15T08:29:32;46;40;
49708;PMS5003;35601;55.902;13.606;2023-04-15T08:31:57;38;35;
49708;PMS5003;35601;55.902;13.606;2023-04-15T08:34:24;40;39;
49708;PMS5003;35601;55.902;13.606;2023-04-15T08:36:48;46;42;
49708;PMS5003;35601;55.902;13.606;2023-04-15T08:39:14;43;41;
49708;PMS5003;35601;55.902;13.606;2023-04-15T08:41:44;40;36;
49708;PMS5003;35601;55.902;13.606;2023-04-15T08:44:05;42;40;
49708;PMS5003;35601;55.902;13.606;2023-04-15T08:46:30;47;41;
49708;PMS5003;35601;55.902;13.606;2023-04-15T08:48:55;42;37;
49708;PMS5003;35601;55.902;13.606;2023-04-15T08:51:20;35;35;
49708;PMS5003;35601;55.902;13.606;2023-04-15T08:53:46;42;40;
49708;PMS5003;35601;55.902;13.606;2023-04-15T08:56:14;46;40;
49708;PMS5003;35601;55.902;13.606;2023-04-15T08:58:37;40;37;
49708;PMS5003;35601;55.902;13.606;2023-04-15T09:01:03;38;37;
49708;PMS5003;35601;55.902;13.606;2023-04-15T09:03:28;42;40;
49708;PMS5003;35601;55.902;13.606;2023-04-15T09:05:54;36;34;
49708;PMS5003;35601;55.902;13.606;2023-04-15T09:08:21;36;35;
49708;PMS5003;35601;55.902;13.606;2023-04-15T09:10:46;43;41;
49708;PMS5003;35601;55.902;13.606;2023-04-15T09:13:10;36;36;
49708;PMS5003;35601;55.902;13.606;2023-04-15T09:15:35;40;39;
49708;PMS5003;35601;55.902;13.606;2023-04-15T09:18:01;42;41;
49708;PMS5003;35601;55.902;13.606;2023-04-15T09:20:26;44;37;
49708;PMS5003;35601;55.902;13.606;2023-04-15T09:22:52;38;37;
49708;PMS5003;35601;55.902;13.606;2023-04-15T09:25:26;48;44;
49708;PMS5003;35601;55.902;13.606;2023-04-15T09:27:47;43;40;
49708;PMS5003;35601;55.902;13.606;2023-04-15T09:30:08;41;39;
49708;PMS5003;35601;55.902;13.606;2023-04-15T09:32:33;47;42;
49708;PMS5003;35601;55.902;13.606;2023-04-15T09:35:02;40;36;
49708;PMS5003;35601;55.902;13.606;2023-04-15T09:39:50;41;36;
49708;PMS5003;35601;55.902;13.606;2023-04-15T09:42:14;46;45;
49708;PMS5003;35601;55.902;13.606;2023-04-15T09:44:40;47;41;
49708;PMS5003;35601;55.902;13.606;2023-04-15T09:47:06;42;41;
49708;PMS5003;35601;55.902;13.606;2023-04-15T09:49:31;42;39;
49708;PMS5003;35601;55.902;13.606;2023-04-15T09:51:57;44;42;
49708;PMS5003;35601;55.902;13.606;2023-04-15T09:54:22;51;44;
49708;PMS5003;35601;55.902;13.606;2023-04-15T09:56:47;43;40;
49708;PMS5003;35601;55.902;13.606;2023-04-15T09:59:12;45;40;
49708;PMS5003;35601;55.902;13.606;2023-04-15T10:01:38;41;38;
49708;PMS5003;35601;55.902;13.606;2023-04-15T10:04:04;42;42;
49708;PMS5003;35601;55.902;13.606;2023-04-15T10:06:30;44;43;
49708;PMS5003;35601;55.902;13.606;2023-04-15T10:08:54;45;43;
49708;PMS5003;35601;55.902;13.606;2023-04-15T10:11:19;48;44;
49708;PMS5003;35601;55.902;13.606;2023-04-15T10:13:45;49;44;
49708;PMS5003;35601;55.902;13.606;2023-04-15T10:16:11;46;42;
49708;PMS5003;35601;55.902;13.606;2023-04-15T10:18:37;45;45;
49708;PMS5003;35601;55.902;13.606;2023-04-15T10:21:02;47;47;
49708;PMS5003;35601;55.902;13.606;2023-04-15T10:23:27;51;46;
49708;PMS5003;35601;55.902;13.606;2023-04-15T10:25:52;46;44;
49708;PMS5003;35601;55.902;13.606;2023-04-15T10:28:20;45;39;
49708;PMS5003;35601;55.902;13.606;2023-04-15T10:30:43;48;43;
49708;PMS5003;35601;55.902;13.606;2023-04-15T10:33:09;47;43;
49708;PMS5003;35601;55.902;13.606;2023-04-15T10:35:34;42;39;
49708;PMS5003;35601;55.902;13.606;2023-04-15T10:38:00;41;37;
49708;PMS5003;35601;55.902;13.606;2023-04-15T10:40:26;43;39;
49708;PMS5003;35601;55.902;13.606;2023-04-15T10:42:50;44;40;
49708;PMS5003;35601;55.902;13.606;2023-04-15T10:45:17;41;37;
49708;PMS5003;35601;55.902;13.606;2023-04-15T10:47:41;42;38;
49708;PMS5003;35601;55.902;13.606;2023-04-15T10:50:07;43;38;
49708;PMS5003;35601;55.902;13.606;2023-04-15T10:52:32;44;39;
49708;PMS5003;35601;55.902;13.606;2023-04-15T10:55:01;39;36;
49708;PMS5003;35601;55.902;13.606;2023-04-15T10:57:24;40;38;
49708;PMS5003;35601;55.902;13.606;2023-04-15T11:02:16;35;32;
49708;PMS5003;35601;55.902;13.606;2023-04-15T11:07:06;44;38;
49708;PMS5003;35601;55.902;13.606;2023-04-15T11:09:31;41;38;
49708;PMS5003;35601;55.902;13.606;2023-04-15T11:12:05;41;37;
49708;PMS5003;35601;55.902;13.606;2023-04-15T11:14:24;37;36;
49708;PMS5003;35601;55.902;13.606;2023-04-15T11:16:47;40;38;
49708;PMS5003;35601;55.902;13.606;2023-04-15T11:19:13;42;37;
49708;PMS5003;35601;55.902;13.606;2023-04-15T11:21:38;39;36;
49708;PMS5003;35601;55.902;13.606;2023-04-15T11:24:04;41;36;
49708;PMS5003;35601;55.902;13.606;2023-04-15T11:26:29;37;35;
49708;PMS5003;35601;55.902;13.606;2023-04-15T11:28:57;43;35;
49708;PMS5003;35601;55.902;13.606;2023-04-15T11:31:20;37;34;
49708;PMS5003;35601;55.902;13.606;2023-04-15T11:33:46;34;30;
49708;PMS5003;35601;55.902;13.606;2023-04-15T11:36:11;38;33;
49708;PMS5003;35601;55.902;13.606;2023-04-15T11:38:41;33;32;
49708;PMS5003;35601;55.902;13.606;2023-04-15T11:41:04;36;34;
49708;PMS5003;35601;55.902;13.606;2023-04-15T11:43:30;34;33;
49708;PMS5003;35601;55.902;13.606;2023-04-15T11:45:55;41;36;
49708;PMS5003;35601;55.902;13.606;2023-04-15T11:48:21;34;31;
49708;PMS5003;35601;55.902;13.606;2023-04-15T11:50:51;38;34;
49708;PMS5003;35601;55.902;13.606;2023-04-15T11:53:11;34;33;
49708;PMS5003;35601;55.902;13.606;2023-04-15T11:55:40;35;33;
49708;PMS5003;35601;55.902;13.606;2023-04-15T11:58:05;34;29;
49708;PMS5003;35601;55.902;13.606;2023-04-15T12:00:27;38;32;
49708;PMS5003;35601;55.902;13.606;2023-04-15T12:05:18;34;28;
49708;PMS5003;35601;55.902;13.606;2023-04-15T12:10:08;33;32;
49708;PMS5003;35601;55.902;13.606;2023-04-15T12:12:34;36;35;
49708;PMS5003;35601;55.902;13.606;2023-04-15T12:15:01;34;30;
49708;PMS5003;35601;55.902;13.606;2023-04-15T12:17:25;36;36;
49708;PMS5003;35601;55.902;13.606;2023-04-15T12:19:54;36;31;
49708;PMS5003;35601;55.902;13.606;2023-04-15T12:22:16;36;29;
49708;PMS5003;35601;55.902;13.606;2023-04-15T12:24:43;39;36;
49708;PMS5003;35601;55.902;13.606;2023-04-15T12:27:09;34;34;
49708;PMS5003;35601;55.902;13.606;2023-04-15T12:29:34;36;32;
49708;PMS5003;35601;55.902;13.606;2023-04-15T12:32:03;36;35;
49708;PMS5003;35601;55.902;13.606;2023-04-15T12:34:26;35;32;
49708;PMS5003;35601;55.902;13.606;2023-04-15T12:36:50;37;34;
49708;PMS5003;35601;55.902;13.606;2023-04-15T12:39:14;40;34;
49708;PMS5003;35601;55.902;13.606;2023-04-15T12:41:40;36;33;
49708;PMS5003;35601;55.902;13.606;2023-04-15T12:44:05;40;37;
49708;PMS5003;35601;55.902;13.606;2023-04-15T12:46:32;34;33;
49708;PMS5003;35601;55.902;13.606;2023-04-15T12:48:57;32;29;
49708;PMS5003;35601;55.902;13.606;2023-04-15T12:51:22;36;33;
49708;PMS5003;35601;55.902;13.606;2023-04-15T12:53:47;30;28;
49708;PMS5003;35601;55.902;13.606;2023-04-15T12:56:13;42;36;
49708;PMS5003;35601;55.902;13.606;2023-04-15T12:58:38;34;28;
49708;PMS5003;35601;55.902;13.606;2023-04-15T13:01:04;33;31;
49708;PMS5003;35601;55.902;13.606;2023-04-15T13:03:29;33;28;
49708;PMS5003;35601;55.902;13.606;2023-04-15T13:05:54;38;37;
49708;PMS5003;35601;55.902;13.606;2023-04-15T13:08:19;39;35;
49708;PMS5003;35601;55.902;13.606;2023-04-15T13:10:45;38;35;
49708;PMS5003;35601;55.902;13.606;2023-04-15T13:13:10;30;28;
49708;PMS5003;35601;55.902;13.606;2023-04-15T13:15:37;36;35;
49708;PMS5003;35601;55.902;13.606;2023-04-15T13:18:01;40;33;
49708;PMS5003;35601;55.902;13.606;2023-04-15T13:20:27;30;26;
49708;PMS5003;35601;55.902;13.606;2023-04-15T13:22:54;40;35;
49708;PMS5003;35601;55.902;13.606;2023-04-15T13:25:19;42;37;
49708;PMS5003;35601;55.902;13.606;2023-04-15T13:27:43;36;32;
49708;PMS5003;35601;55.902;13.606;2023-04-15T13:30:08;29;26;
49708;PMS5003;35601;55.902;13.606;2023-04-15T13:32:33;34;34;
49708;PMS5003;35601;55.902;13.606;2023-04-15T13:34:59;33;30;
49708;PMS5003;35601;55.902;13.606;2023-04-15T13:37:25;32;32;
49708;PMS5003;35601;55.902;13.606;2023-04-15T13:39:50;33;30;
49708;PMS5003;35601;55.902;13.606;2023-04-15T13:42:16;33;31;
49708;PMS5003;35601;55.902;13.606;2023-04-15T13:44:40;29;28;
49708;PMS5003;35601;55.902;13.606;2023-04-15T13:47:05;28;27;
49708;PMS5003;35601;55.902;13.606;2023-04-15T13:49:32;22;21;
49708;PMS5003;35601;55.902;13.606;2023-04-15T13:51:56;26;26;
49708;PMS5003;35601;55.902;13.606;2023-04-15T13:54:21;29;25;
49708;PMS5003;35601;55.902;13.606;2023-04-15T13:56:47;26;25;
49708;PMS5003;35601;55.902;13.606;2023-04-15T13:59:13;28;26;
49708;PMS5003;35601;55.902;13.606;2023-04-15T14:01:38;25;24;
49708;PMS5003;35601;55.902;13.606;2023-04-15T14:04:04;30;29;
49708;PMS5003;35601;55.902;13.606;2023-04-15T14:06:29;27;27;
49708;PMS5003;35601;55.902;13.606;2023-04-15T14:08:55;29;23;
49708;PMS5003;35601;55.902;13.606;2023-04-15T14:11:21;28;25;
49708;PMS5003;35601;55.902;13.606;2023-04-15T14:13:46;26;25;
49708;PMS5003;35601;55.902;13.606;2023-04-15T14:16:12;33;25;
49708;PMS5003;35601;55.902;13.606;2023-04-15T14:18:37;28;27;
49708;PMS5003;35601;55.902;13.606;2023-04-15T14:21:03;31;27;
49708;PMS5003;35601;55.902;13.606;2023-04-15T14:23:29;28;27;
49708;PMS5003;35601;55.902;13.606;2023-04-15T14:25:53;35;29;
49708;PMS5003;35601;55.902;13.606;2023-04-15T14:28:18;25;22;
49708;PMS5003;35601;55.902;13.606;2023-04-15T14:30:44;27;27;
49708;PMS5003;35601;55.902;13.606;2023-04-15T14:33:10;24;22;
49708;PMS5003;35601;55.902;13.606;2023-04-15T14:35:36;26;25;
49708;PMS5003;35601;55.902;13.606;2023-04-15T14:38:01;29;29;
49708;PMS5003;35601;55.902;13.606;2023-04-15T14:40:26;33;29;
49708;PMS5003;35601;55.902;13.606;2023-04-15T14:42:51;30;28;
49708;PMS5003;35601;55.902;13.606;2023-04-15T14:45:17;29;26;
49708;PMS5003;35601;55.902;13.606;2023-04-15T14:47:42;25;23;
49708;PMS5003;35601;55.902;13.606;2023-04-15T14:50:07;26;23;
49708;PMS5003;35601;55.902;13.606;2023-04-15T14:52:33;27;24;
49708;PMS5003;35601;55.902;13.606;2023-04-15T14:54:58;26;24;
49708;PMS5003;35601;55.902;13.606;2023-04-15T14:57:24;25;25;
49708;PMS5003;35601;55.902;13.606;2023-04-15T14:59:50;26;26;
49708;PMS5003;35601;55.902;13.606;2023-04-15T15:02:15;25;24;
49708;PMS5003;35601;55.902;13.606;2023-04-15T15:04:41;26;26;
49708;PMS5003;35601;55.902;13.606;2023-04-15T15:07:08;26;24;
49708;PMS5003;35601;55.902;13.606;2023-04-15T15:09:33;32;28;
49708;PMS5003;35601;55.902;13.606;2023-04-15T15:11:58;28;26;
49708;PMS5003;35601;55.902;13.606;2023-04-15T15:14:23;27;26;
49708;PMS5003;35601;55.902;13.606;2023-04-15T15:16:48;30;26;
49708;PMS5003;35601;55.902;13.606;2023-04-15T15:19:13;31;28;
49708;PMS5003;35601;55.902;13.606;2023-04-15T15:21:40;32;30;
49708;PMS5003;35601;55.902;13.606;2023-04-15T15:24:04;33;29;
49708;PMS5003;35601;55.902;13.606;2023-04-15T15:26:30;28;26;
49708;PMS5003;35601;55.902;13.606;2023-04-15T15:28:55;28;27;
49708;PMS5003;35601;55.902;13.606;2023-04-15T15:31:21;34;31;
49708;PMS5003;35601;55.902;13.606;2023-04-15T15:33:46;37;31;
49708;PMS5003;35601;55.902;13.606;2023-04-15T15:36:11;34;27;
49708;PMS5003;35601;55.902;13.606;2023-04-15T15:38:36;30;27;
49708;PMS5003;35601;55.902;13.606;2023-04-15T15:41:03;34;32;
49708;PMS5003;35601;55.902;13.606;2023-04-15T15:43:28;31;30;
49708;PMS5003;35601;55.902;13.606;2023-04-15T15:45:54;37;32;
49708;PMS5003;35601;55.902;13.606;2023-04-15T15:48:19;31;27;
49708;PMS5003;35601;55.902;13.606;2023-04-15T15:50:44;33;28;
49708;PMS5003;35601;55.902;13.606;2023-04-15T15:53:09;27;27;
49708;PMS5003;35601;55.902;13.606;2023-04-15T15:55:36;35;31;
49708;PMS5003;35601;55.902;13.606;2023-04-15T15:58:01;32;30;
49708;PMS5003;35601;55.902;13.606;2023-04-15T16:00:26;35;28;